sensor_id;sensor_type;location;lat;lon;timestamp;temperature;humidity
28654;DHT22;24320;56.980;24.336;2022-07-22T00:00:41;15.60;99.90
28654;DHT22;24320;56.980;24.336;2022-07-22T00:03:08;15.50;99.90
28654;DHT22;24320;56.980;24.336;2022-07-22T00:05:35;15.60;99.90
28654;DHT22;24320;56.980;24.336;2022-07-22T00:08:02;15.50;99.90
28654;DHT22;24320;56.980;24.336;2022-07-22T00:10:30;15.50;99.90
28654;DHT22;24320;56.980;24.336;2022-07-22T00:12:56;15.50;99.90
28654;DHT22;24320;56.980;24.336;2022-07-22T00:15:23;15.50;99.90
28654;DHT22;24320;56.980;24.336;2022-07-22T00:17:50;15.40;99.90
28654;DHT22;24320;56.980;24.336;2022-07-22T00:20:17;15.40;99.90
28654;DHT22;24320;56.980;24.336;2022-07-22T00:22:46;15.40;99.90
28654;DHT22;24320;56.980;24.336;2022-07-22T00:25:13;15.30;99.90
28654;DHT22;24320;56.980;24.336;2022-07-22T00:27:40;15.30;99.90
28654;DHT22;24320;56.980;24.336;2022-07-22T00:30:07;15.30;99.90
28654;DHT22;24320;56.980;24.336;2022-07-22T00:32:36;15.30;99.90
28654;DHT22;24320;56.980;24.336;2022-07-22T00:35:03;15.20;99.90
28654;DHT22;24320;56.980;24.336;2022-07-22T00:37:31;15.20;99.90
28654;DHT22;24320;56.980;24.336;2022-07-22T00:39:58;15.20;99.90
28654;DHT22;24320;56.980;24.336;2022-07-22T00:42:25;15.10;99.90
28654;DHT22;24320;56.980;24.336;2022-07-22T00:44:54;15.10;99.90
28654;DHT22;24320;56.980;24.336;2022-07-22T00:47:22;15.00;99.90
28654;DHT22;24320;56.980;24.336;2022-07-22T00:49:50;15.00;99.90
28654;DHT22;24320;56.980;24.336;2022-07-22T00:52:19;15.00;99.90
28654;DHT22;24320;56.980;24.336;2022-07-22T00:54:46;15.00;99.90
28654;DHT22;24320;56.980;24.336;2022-07-22T00:57:13;14.90;99.90
28654;DHT22;24320;56.980;24.336;2022-07-22T00:59:40;14.90;99.90
28654;DHT22;24320;56.980;24.336;2022-07-22T01:02:07;15.00;99.90
28654;DHT22;24320;56.980;24.336;2022-07-22T01:04:34;14.90;99.90
28654;DHT22;24320;56.980;24.336;2022-07-22T01:07:02;14.90;99.90
28654;DHT22;24320;56.980;24.336;2022-07-22T01:09:29;14.90;99.90
28654;DHT22;24320;56.980;24.336;2022-07-22T01:11:57;14.90;99.90
28654;DHT22;24320;56.980;24.336;2022-07-22T01:14:23;14.90;99.90
28654;DHT22;24320;56.980;24.336;2022-07-22T01:16:50;14.80;99.90
28654;DHT22;24320;56.980;24.336;2022-07-22T01:19:17;14.80;99.90
28654;DHT22;24320;56.980;24.336;2022-07-22T01:21:45;14.80;99.90
28654;DHT22;24320;56.980;24.336;2022-07-22T01:24:12;14.80;99.90
28654;DHT22;24320;56.980;24.336;2022-07-22T01:26:39;14.80;99.90
28654;DHT22;24320;56.980;24.336;2022-07-22T01:29:07;14.80;99.90
28654;DHT22;24320;56.980;24.336;2022-07-22T01:31:35;14.80;99.90
28654;DHT22;24320;56.980;24.336;2022-07-22T01:34:03;14.70;99.90
28654;DHT22;24320;56.980;24.336;2022-07-22T01:36:30;14.70;99.90
28654;DHT22;24320;56.980;24.336;2022-07-22T01:38:58;14.70;99.90
28654;DHT22;24320;56.980;24.336;2022-07-22T01:41:25;14.70;99.90
28654;DHT22;24320;56.980;24.336;2022-07-22T01:43:53;14.70;99.90
28654;DHT22;24320;56.980;24.336;2022-07-22T01:46:20;14.70;99.90
28654;DHT22;24320;56.980;24.336;2022-07-22T01:48:47;14.70;99.90
28654;DHT22;24320;56.980;24.336;2022-07-22T01:51:14;14.70;99.90
28654;DHT22;24320;56.980;24.336;2022-07-22T01:53:41;14.60;99.90
28654;DHT22;24320;56.980;24.336;2022-07-22T01:56:08;14.70;99.90
28654;DHT22;24320;56.980;24.336;2022-07-22T01:58:35;14.70;99.90
28654;DHT22;24320;56.980;24.336;2022-07-22T02:01:06;14.60;99.90
28654;DHT22;24320;56.980;24.336;2022-07-22T02:03:34;14.70;99.90
28654;DHT22;24320;56.980;24.336;2022-07-22T02:06:02;14.60;99.90
28654;DHT22;24320;56.980;24.336;2022-07-22T02:08:29;14.60;99.90
28654;DHT22;24320;56.980;24.336;2022-07-22T02:10:56;14.60;99.90
28654;DHT22;24320;56.980;24.336;2022-07-22T02:13:23;14.60;99.90
28654;DHT22;24320;56.980;24.336;2022-07-22T02:15:50;14.50;99.90
28654;DHT22;24320;56.980;24.336;2022-07-22T02:18:17;14.50;99.90
28654;DHT22;24320;56.980;24.336;2022-07-22T02:20:46;14.60;99.90
28654;DHT22;24320;56.980;24.336;2022-07-22T02:23:13;14.60;99.90
28654;DHT22;24320;56.980;24.336;2022-07-22T02:25:41;14.60;99.90
28654;DHT22;24320;56.980;24.336;2022-07-22T02:28:08;14.60;99.90
28654;DHT22;24320;56.980;24.336;2022-07-22T02:30:35;14.60;99.90
28654;DHT22;24320;56.980;24.336;2022-07-22T02:33:03;14.70;99.90
28654;DHT22;24320;56.980;24.336;2022-07-22T02:35:29;14.80;99.90
28654;DHT22;24320;56.980;24.336;2022-07-22T02:37:57;14.80;99.90
28654;DHT22;24320;56.980;24.336;2022-07-22T02:40:24;14.80;99.90
28654;DHT22;24320;56.980;24.336;2022-07-22T02:42:51;14.80;99.90
28654;DHT22;24320;56.980;24.336;2022-07-22T02:45:18;14.90;99.90
28654;DHT22;24320;56.980;24.336;2022-07-22T02:47:50;14.90;99.90
28654;DHT22;24320;56.980;24.336;2022-07-22T02:50:17;15.00;99.90
28654;DHT22;24320;56.980;24.336;2022-07-22T02:52:44;15.00;99.90
28654;DHT22;24320;56.980;24.336;2022-07-22T02:55:11;15.10;99.90
28654;DHT22;24320;56.980;24.336;2022-07-22T02:57:38;15.20;99.90
28654;DHT22;24320;56.980;24.336;2022-07-22T03:00:07;15.30;99.90
28654;DHT22;24320;56.980;24.336;2022-07-22T03:02:38;15.40;99.90
28654;DHT22;24320;56.980;24.336;2022-07-22T03:05:06;15.50;99.90
28654;DHT22;24320;56.980;24.336;2022-07-22T03:07:33;15.70;99.90
28654;DHT22;24320;56.980;24.336;2022-07-22T03:10:00;16.00;99.90
28654;DHT22;24320;56.980;24.336;2022-07-22T03:12:28;16.50;99.90
28654;DHT22;24320;56.980;24.336;2022-07-22T03:14:56;17.20;99.90
28654;DHT22;24320;56.980;24.336;2022-07-22T03:17:23;17.90;99.90
28654;DHT22;24320;56.980;24.336;2022-07-22T03:19:50;18.60;99.90
28654;DHT22;24320;56.980;24.336;2022-07-22T03:22:17;19.30;99.90
28654;DHT22;24320;56.980;24.336;2022-07-22T03:24:44;19.90;99.90
28654;DHT22;24320;56.980;24.336;2022-07-22T03:27:12;20.50;99.90
28654;DHT22;24320;56.980;24.336;2022-07-22T03:29:39;21.10;99.90
28654;DHT22;24320;56.980;24.336;2022-07-22T03:32:06;21.50;99.90
28654;DHT22;24320;56.980;24.336;2022-07-22T03:34:33;22.00;99.90
28654;DHT22;24320;56.980;24.336;2022-07-22T03:37:00;22.50;99.90
28654;DHT22;24320;56.980;24.336;2022-07-22T03:39:28;22.90;99.90
28654;DHT22;24320;56.980;24.336;2022-07-22T03:41:55;23.20;99.90
28654;DHT22;24320;56.980;24.336;2022-07-22T03:44:22;23.40;99.90
28654;DHT22;24320;56.980;24.336;2022-07-22T03:46:49;23.70;99.90
28654;DHT22;24320;56.980;24.336;2022-07-22T03:49:16;24.20;99.90
28654;DHT22;24320;56.980;24.336;2022-07-22T03:51:43;24.50;99.90
28654;DHT22;24320;56.980;24.336;2022-07-22T03:54:10;24.60;99.90
28654;DHT22;24320;56.980;24.336;2022-07-22T03:56:37;24.70;99.90
28654;DHT22;24320;56.980;24.336;2022-07-22T03:59:04;24.80;99.90
28654;DHT22;24320;56.980;24.336;2022-07-22T04:01:31;25.10;99.90
28654;DHT22;24320;56.980;24.336;2022-07-22T04:03:58;25.40;99.90
28654;DHT22;24320;56.980;24.336;2022-07-22T04:06:30;25.80;99.90
28654;DHT22;24320;56.980;24.336;2022-07-22T04:08:58;26.00;99.90
28654;DHT22;24320;56.980;24.336;2022-07-22T04:11:26;26.10;99.90
28654;DHT22;24320;56.980;24.336;2022-07-22T04:13:53;26.20;99.90
28654;DHT22;24320;56.980;24.336;2022-07-22T04:16:20;26.40;99.90
28654;DHT22;24320;56.980;24.336;2022-07-22T04:18:47;26.30;99.90
28654;DHT22;24320;56.980;24.336;2022-07-22T04:21:14;26.40;99.90
28654;DHT22;24320;56.980;24.336;2022-07-22T04:23:42;26.40;99.90
28654;DHT22;24320;56.980;24.336;2022-07-22T04:26:09;26.40;99.90
28654;DHT22;24320;56.980;24.336;2022-07-22T04:28:36;26.30;99.90
28654;DHT22;24320;56.980;24.336;2022-07-22T04:31:03;26.20;99.90
28654;DHT22;24320;56.980;24.336;2022-07-22T04:36:33;26.20;99.90
28654;DHT22;24320;56.980;24.336;2022-07-22T04:39:00;26.40;99.90
28654;DHT22;24320;56.980;24.336;2022-07-22T04:41:27;26.60;99.90
28654;DHT22;24320;56.980;24.336;2022-07-22T04:43:54;26.60;99.90
28654;DHT22;24320;56.980;24.336;2022-07-22T04:46:21;26.80;99.90
28654;DHT22;24320;56.980;24.336;2022-07-22T04:48:48;26.90;99.90
28654;DHT22;24320;56.980;24.336;2022-07-22T04:51:15;26.90;99.90
28654;DHT22;24320;56.980;24.336;2022-07-22T04:53:42;26.80;99.90
28654;DHT22;24320;56.980;24.336;2022-07-22T04:56:16;26.90;99.90
28654;DHT22;24320;56.980;24.336;2022-07-22T04:58:43;27.00;99.90
28654;DHT22;24320;56.980;24.336;2022-07-22T05:01:09;27.00;99.90
28654;DHT22;24320;56.980;24.336;2022-07-22T05:03:41;27.20;99.90
28654;DHT22;24320;56.980;24.336;2022-07-22T05:06:08;27.40;99.90
28654;DHT22;24320;56.980;24.336;2022-07-22T05:08:35;27.50;99.90
28654;DHT22;24320;56.980;24.336;2022-07-22T05:11:03;27.60;99.90
28654;DHT22;24320;56.980;24.336;2022-07-22T05:13:30;27.70;99.90
28654;DHT22;24320;56.980;24.336;2022-07-22T05:15:57;27.70;99.90
28654;DHT22;24320;56.980;24.336;2022-07-22T05:18:23;27.70;99.90
28654;DHT22;24320;56.980;24.336;2022-07-22T05:20:50;27.80;99.90
28654;DHT22;24320;56.980;24.336;2022-07-22T05:23:17;28.10;99.90
28654;DHT22;24320;56.980;24.336;2022-07-22T05:25:44;28.50;99.90
28654;DHT22;24320;56.980;24.336;2022-07-22T05:28:11;28.70;99.90
28654;DHT22;24320;56.980;24.336;2022-07-22T05:30:38;28.90;99.90
28654;DHT22;24320;56.980;24.336;2022-07-22T05:33:05;29.20;99.90
28654;DHT22;24320;56.980;24.336;2022-07-22T05:35:32;29.30;99.90
28654;DHT22;24320;56.980;24.336;2022-07-22T05:37:59;29.70;99.90
28654;DHT22;24320;56.980;24.336;2022-07-22T05:40:27;29.90;99.90
28654;DHT22;24320;56.980;24.336;2022-07-22T05:42:55;30.10;99.90
28654;DHT22;24320;56.980;24.336;2022-07-22T05:45:22;30.40;99.90
28654;DHT22;24320;56.980;24.336;2022-07-22T05:47:49;30.50;99.40
28654;DHT22;24320;56.980;24.336;2022-07-22T05:50:16;30.60;99.50
28654;DHT22;24320;56.980;24.336;2022-07-22T05:52:43;30.70;97.50
28654;DHT22;24320;56.980;24.336;2022-07-22T05:55:10;30.50;97.50
28654;DHT22;24320;56.980;24.336;2022-07-22T05:57:37;30.50;97.50
28654;DHT22;24320;56.980;24.336;2022-07-22T06:00:04;30.50;98.30
28654;DHT22;24320;56.980;24.336;2022-07-22T06:02:32;30.60;99.90
28654;DHT22;24320;56.980;24.336;2022-07-22T06:04:59;30.90;98.20
28654;DHT22;24320;56.980;24.336;2022-07-22T06:07:29;31.00;97.50
28654;DHT22;24320;56.980;24.336;2022-07-22T06:09:57;31.10;95.40
28654;DHT22;24320;56.980;24.336;2022-07-22T06:12:24;31.00;97.10
28654;DHT22;24320;56.980;24.336;2022-07-22T06:14:51;30.90;96.30
28654;DHT22;24320;56.980;24.336;2022-07-22T06:17:18;30.80;95.60
28654;DHT22;24320;56.980;24.336;2022-07-22T06:19:45;30.80;95.40
28654;DHT22;24320;56.980;24.336;2022-07-22T06:22:12;30.90;97.00
28654;DHT22;24320;56.980;24.336;2022-07-22T06:24:39;31.10;94.60
28654;DHT22;24320;56.980;24.336;2022-07-22T06:27:06;31.00;94.40
28654;DHT22;24320;56.980;24.336;2022-07-22T06:29:33;30.90;94.50
28654;DHT22;24320;56.980;24.336;2022-07-22T06:32:00;30.70;94.80
28654;DHT22;24320;56.980;24.336;2022-07-22T06:34:28;30.70;95.90
28654;DHT22;24320;56.980;24.336;2022-07-22T06:36:56;30.70;96.00
28654;DHT22;24320;56.980;24.336;2022-07-22T06:39:23;30.80;95.90
28654;DHT22;24320;56.980;24.336;2022-07-22T06:41:50;30.80;95.40
28654;DHT22;24320;56.980;24.336;2022-07-22T06:44:17;30.90;97.20
28654;DHT22;24320;56.980;24.336;2022-07-22T06:46:44;31.00;97.70
28654;DHT22;24320;56.980;24.336;2022-07-22T06:49:14;31.20;96.70
28654;DHT22;24320;56.980;24.336;2022-07-22T06:51:41;31.20;96.40
28654;DHT22;24320;56.980;24.336;2022-07-22T06:54:08;31.20;95.50
28654;DHT22;24320;56.980;24.336;2022-07-22T06:56:35;31.30;95.90
28654;DHT22;24320;56.980;24.336;2022-07-22T06:59:03;31.50;96.20
28654;DHT22;24320;56.980;24.336;2022-07-22T07:01:30;31.70;94.20
28654;DHT22;24320;56.980;24.336;2022-07-22T07:03:57;31.90;94.80
28654;DHT22;24320;56.980;24.336;2022-07-22T07:06:24;32.00;94.30
28654;DHT22;24320;56.980;24.336;2022-07-22T07:08:51;32.20;95.50
28654;DHT22;24320;56.980;24.336;2022-07-22T07:11:19;32.20;93.50
28654;DHT22;24320;56.980;24.336;2022-07-22T07:13:46;32.20;94.70
28654;DHT22;24320;56.980;24.336;2022-07-22T07:16:13;32.40;95.20
28654;DHT22;24320;56.980;24.336;2022-07-22T07:18:40;32.60;93.70
28654;DHT22;24320;56.980;24.336;2022-07-22T07:21:08;32.60;93.20
28654;DHT22;24320;56.980;24.336;2022-07-22T07:23:35;32.70;92.80
28654;DHT22;24320;56.980;24.336;2022-07-22T07:26:04;32.80;91.70
28654;DHT22;24320;56.980;24.336;2022-07-22T07:28:31;32.90;92.20
28654;DHT22;24320;56.980;24.336;2022-07-22T07:30:59;32.90;91.70
28654;DHT22;24320;56.980;24.336;2022-07-22T07:33:26;32.90;91.10
28654;DHT22;24320;56.980;24.336;2022-07-22T07:35:55;33.00;91.70
28654;DHT22;24320;56.980;24.336;2022-07-22T07:38:22;33.00;91.40
28654;DHT22;24320;56.980;24.336;2022-07-22T07:40:51;32.80;89.90
28654;DHT22;24320;56.980;24.336;2022-07-22T07:43:18;32.60;91.50
28654;DHT22;24320;56.980;24.336;2022-07-22T07:45:47;32.50;92.30
28654;DHT22;24320;56.980;24.336;2022-07-22T07:48:18;32.50;92.00
28654;DHT22;24320;56.980;24.336;2022-07-22T07:50:45;32.60;90.60
28654;DHT22;24320;56.980;24.336;2022-07-22T07:53:16;32.60;90.00
28654;DHT22;24320;56.980;24.336;2022-07-22T07:55:45;32.80;91.50
28654;DHT22;24320;56.980;24.336;2022-07-22T07:58:17;32.80;87.70
28654;DHT22;24320;56.980;24.336;2022-07-22T08:00:44;32.70;91.60
28654;DHT22;24320;56.980;24.336;2022-07-22T08:03:12;32.70;92.60
28654;DHT22;24320;56.980;24.336;2022-07-22T08:05:39;32.80;91.30
28654;DHT22;24320;56.980;24.336;2022-07-22T08:08:08;32.80;91.70
28654;DHT22;24320;56.980;24.336;2022-07-22T08:10:40;32.80;90.70
28654;DHT22;24320;56.980;24.336;2022-07-22T08:13:26;32.70;91.00
28654;DHT22;24320;56.980;24.336;2022-07-22T08:15:54;32.40;88.90
28654;DHT22;24320;56.980;24.336;2022-07-22T08:18:23;32.30;90.70
28654;DHT22;24320;56.980;24.336;2022-07-22T08:20:51;32.30;91.30
28654;DHT22;24320;56.980;24.336;2022-07-22T08:23:18;32.20;91.50
28654;DHT22;24320;56.980;24.336;2022-07-22T08:25:46;32.10;89.40
28654;DHT22;24320;56.980;24.336;2022-07-22T08:28:13;32.00;90.60
28654;DHT22;24320;56.980;24.336;2022-07-22T08:30:40;31.90;90.90
28654;DHT22;24320;56.980;24.336;2022-07-22T08:33:07;31.90;93.70
28654;DHT22;24320;56.980;24.336;2022-07-22T08:35:34;31.90;93.20
28654;DHT22;24320;56.980;24.336;2022-07-22T08:38:01;32.00;92.70
28654;DHT22;24320;56.980;24.336;2022-07-22T08:40:28;32.00;91.40
28654;DHT22;24320;56.980;24.336;2022-07-22T08:42:55;31.80;90.70
28654;DHT22;24320;56.980;24.336;2022-07-22T08:45:23;31.70;93.90
28654;DHT22;24320;56.980;24.336;2022-07-22T08:47:51;31.60;92.40
28654;DHT22;24320;56.980;24.336;2022-07-22T08:50:19;31.50;92.20
28654;DHT22;24320;56.980;24.336;2022-07-22T08:52:48;31.50;94.80
28654;DHT22;24320;56.980;24.336;2022-07-22T08:55:15;31.40;93.20
28654;DHT22;24320;56.980;24.336;2022-07-22T08:57:47;31.30;93.10
28654;DHT22;24320;56.980;24.336;2022-07-22T09:00:17;31.30;93.60
28654;DHT22;24320;56.980;24.336;2022-07-22T09:02:45;31.20;92.50
28654;DHT22;24320;56.980;24.336;2022-07-22T09:05:14;31.30;92.00
28654;DHT22;24320;56.980;24.336;2022-07-22T09:08:01;31.20;93.10
28654;DHT22;24320;56.980;24.336;2022-07-22T09:10:35;31.40;93.60
28654;DHT22;24320;56.980;24.336;2022-07-22T09:13:05;31.40;93.10
28654;DHT22;24320;56.980;24.336;2022-07-22T09:15:35;31.40;90.80
28654;DHT22;24320;56.980;24.336;2022-07-22T09:18:04;31.30;90.50
28654;DHT22;24320;56.980;24.336;2022-07-22T09:20:34;31.20;89.50
28654;DHT22;24320;56.980;24.336;2022-07-22T09:23:08;31.00;91.50
28654;DHT22;24320;56.980;24.336;2022-07-22T09:25:37;30.90;90.60
28654;DHT22;24320;56.980;24.336;2022-07-22T09:30:39;30.90;93.40
28654;DHT22;24320;56.980;24.336;2022-07-22T09:33:08;30.90;92.60
28654;DHT22;24320;56.980;24.336;2022-07-22T09:35:36;31.00;94.60
28654;DHT22;24320;56.980;24.336;2022-07-22T09:38:05;31.00;93.10
28654;DHT22;24320;56.980;24.336;2022-07-22T09:40:35;31.00;93.50
28654;DHT22;24320;56.980;24.336;2022-07-22T09:43:12;30.80;92.60
28654;DHT22;24320;56.980;24.336;2022-07-22T09:45:48;30.70;92.80
28654;DHT22;24320;56.980;24.336;2022-07-22T09:48:18;30.70;93.60
28654;DHT22;24320;56.980;24.336;2022-07-22T09:50:46;30.70;93.00
28654;DHT22;24320;56.980;24.336;2022-07-22T09:53:14;30.70;92.20
28654;DHT22;24320;56.980;24.336;2022-07-22T09:55:41;30.70;93.10
28654;DHT22;24320;56.980;24.336;2022-07-22T09:58:08;30.80;92.70
28654;DHT22;24320;56.980;24.336;2022-07-22T10:00:36;30.80;93.70
28654;DHT22;24320;56.980;24.336;2022-07-22T10:03:10;30.80;92.60
28654;DHT22;24320;56.980;24.336;2022-07-22T10:05:40;30.70;91.20
28654;DHT22;24320;56.980;24.336;2022-07-22T10:08:08;30.80;94.40
28654;DHT22;24320;56.980;24.336;2022-07-22T10:10:36;30.80;94.50
28654;DHT22;24320;56.980;24.336;2022-07-22T10:13:05;30.80;93.90
28654;DHT22;24320;56.980;24.336;2022-07-22T10:15:34;30.70;91.30
28654;DHT22;24320;56.980;24.336;2022-07-22T10:18:16;30.70;91.90
28654;DHT22;24320;56.980;24.336;2022-07-22T10:20:44;30.70;91.50
28654;DHT22;24320;56.980;24.336;2022-07-22T10:23:13;30.70;91.90
28654;DHT22;24320;56.980;24.336;2022-07-22T10:28:39;30.50;93.20
28654;DHT22;24320;56.980;24.336;2022-07-22T10:33:44;30.60;91.70
28654;DHT22;24320;56.980;24.336;2022-07-22T10:36:11;30.70;92.30
28654;DHT22;24320;56.980;24.336;2022-07-22T10:39:02;30.70;92.40
28654;DHT22;24320;56.980;24.336;2022-07-22T10:41:34;30.70;89.50
28654;DHT22;24320;56.980;24.336;2022-07-22T10:44:02;30.70;90.00
28654;DHT22;24320;56.980;24.336;2022-07-22T10:46:54;30.60;91.60
28654;DHT22;24320;56.980;24.336;2022-07-22T10:49:23;30.70;91.80
28654;DHT22;24320;56.980;24.336;2022-07-22T10:55:20;30.80;92.60
28654;DHT22;24320;56.980;24.336;2022-07-22T10:57:48;30.80;90.50
28654;DHT22;24320;56.980;24.336;2022-07-22T11:00:16;30.70;92.50
28654;DHT22;24320;56.980;24.336;2022-07-22T11:02:43;30.80;90.80
28654;DHT22;24320;56.980;24.336;2022-07-22T11:05:10;30.80;91.70
28654;DHT22;24320;56.980;24.336;2022-07-22T11:07:41;30.80;91.90
28654;DHT22;24320;56.980;24.336;2022-07-22T11:10:17;30.80;91.90
28654;DHT22;24320;56.980;24.336;2022-07-22T11:12:48;30.90;89.10
28654;DHT22;24320;56.980;24.336;2022-07-22T11:15:16;30.80;89.70
28654;DHT22;24320;56.980;24.336;2022-07-22T11:17:45;30.80;90.50
28654;DHT22;24320;56.980;24.336;2022-07-22T11:20:13;30.80;92.60
28654;DHT22;24320;56.980;24.336;2022-07-22T11:22:40;30.80;88.90
28654;DHT22;24320;56.980;24.336;2022-07-22T11:25:09;30.60;90.10
28654;DHT22;24320;56.980;24.336;2022-07-22T11:27:37;30.50;90.70
28654;DHT22;24320;56.980;24.336;2022-07-22T11:30:04;30.50;90.80
28654;DHT22;24320;56.980;24.336;2022-07-22T11:32:41;30.40;90.50
28654;DHT22;24320;56.980;24.336;2022-07-22T11:35:12;30.30;90.60
28654;DHT22;24320;56.980;24.336;2022-07-22T11:37:40;30.40;90.50
28654;DHT22;24320;56.980;24.336;2022-07-22T11:40:08;30.40;90.30
28654;DHT22;24320;56.980;24.336;2022-07-22T11:42:36;30.50;91.00
28654;DHT22;24320;56.980;24.336;2022-07-22T11:45:04;30.60;93.10
28654;DHT22;24320;56.980;24.336;2022-07-22T11:47:31;30.70;90.70
28654;DHT22;24320;56.980;24.336;2022-07-22T11:49:58;30.70;90.60
28654;DHT22;24320;56.980;24.336;2022-07-22T11:52:25;30.60;90.70
28654;DHT22;24320;56.980;24.336;2022-07-22T11:54:52;30.40;90.20
28654;DHT22;24320;56.980;24.336;2022-07-22T11:57:19;30.30;91.10
28654;DHT22;24320;56.980;24.336;2022-07-22T11:59:46;30.30;91.90
28654;DHT22;24320;56.980;24.336;2022-07-22T12:02:13;30.30;91.40
28654;DHT22;24320;56.980;24.336;2022-07-22T12:04:42;30.30;94.50
28654;DHT22;24320;56.980;24.336;2022-07-22T12:07:11;30.40;91.10
28654;DHT22;24320;56.980;24.336;2022-07-22T12:09:39;30.40;93.00
28654;DHT22;24320;56.980;24.336;2022-07-22T12:12:09;30.40;92.60
28654;DHT22;24320;56.980;24.336;2022-07-22T12:14:36;30.40;92.20
28654;DHT22;24320;56.980;24.336;2022-07-22T12:17:10;30.50;90.60
28654;DHT22;24320;56.980;24.336;2022-07-22T12:19:38;30.40;90.10
28654;DHT22;24320;56.980;24.336;2022-07-22T12:24:40;30.40;87.90
28654;DHT22;24320;56.980;24.336;2022-07-22T12:27:08;30.40;90.00
28654;DHT22;24320;56.980;24.336;2022-07-22T12:34:46;30.50;90.80
28654;DHT22;24320;56.980;24.336;2022-07-22T12:37:18;30.60;87.40
28654;DHT22;24320;56.980;24.336;2022-07-22T12:39:56;30.60;89.20
28654;DHT22;24320;56.980;24.336;2022-07-22T12:42:26;30.60;90.40
28654;DHT22;24320;56.980;24.336;2022-07-22T12:45:06;30.70;88.10
28654;DHT22;24320;56.980;24.336;2022-07-22T12:52:42;30.80;86.90
28654;DHT22;24320;56.980;24.336;2022-07-22T12:55:33;30.90;86.50
28654;DHT22;24320;56.980;24.336;2022-07-22T12:58:00;30.90;88.50
28654;DHT22;24320;56.980;24.336;2022-07-22T13:00:33;30.90;85.20
28654;DHT22;24320;56.980;24.336;2022-07-22T13:03:00;31.00;89.40
28654;DHT22;24320;56.980;24.336;2022-07-22T13:05:28;30.90;90.00
28654;DHT22;24320;56.980;24.336;2022-07-22T13:07:56;31.00;85.80
28654;DHT22;24320;56.980;24.336;2022-07-22T13:10:24;31.00;88.30
28654;DHT22;24320;56.980;24.336;2022-07-22T13:12:52;31.00;87.70
28654;DHT22;24320;56.980;24.336;2022-07-22T13:15:21;31.10;89.10
28654;DHT22;24320;56.980;24.336;2022-07-22T13:17:49;31.00;86.60
28654;DHT22;24320;56.980;24.336;2022-07-22T13:20:17;31.10;89.20
28654;DHT22;24320;56.980;24.336;2022-07-22T13:22:49;31.00;85.80
28654;DHT22;24320;56.980;24.336;2022-07-22T13:25:17;31.00;89.50
28654;DHT22;24320;56.980;24.336;2022-07-22T13:27:44;31.00;89.40
28654;DHT22;24320;56.980;24.336;2022-07-22T13:30:12;31.10;87.50
28654;DHT22;24320;56.980;24.336;2022-07-22T13:32:39;31.00;88.40
28654;DHT22;24320;56.980;24.336;2022-07-22T13:35:15;30.90;87.80
28654;DHT22;24320;56.980;24.336;2022-07-22T13:37:45;30.90;85.60
28654;DHT22;24320;56.980;24.336;2022-07-22T13:40:13;30.90;88.70
28654;DHT22;24320;56.980;24.336;2022-07-22T13:42:40;30.80;87.40
28654;DHT22;24320;56.980;24.336;2022-07-22T13:45:08;30.80;88.60
28654;DHT22;24320;56.980;24.336;2022-07-22T13:47:38;30.80;84.60
28654;DHT22;24320;56.980;24.336;2022-07-22T13:50:06;30.80;86.60
28654;DHT22;24320;56.980;24.336;2022-07-22T13:52:33;30.80;87.90
28654;DHT22;24320;56.980;24.336;2022-07-22T13:55:01;30.80;85.80
28654;DHT22;24320;56.980;24.336;2022-07-22T13:57:28;30.70;83.60
28654;DHT22;24320;56.980;24.336;2022-07-22T13:59:55;30.70;82.90
28654;DHT22;24320;56.980;24.336;2022-07-22T14:02:23;30.70;84.90
28654;DHT22;24320;56.980;24.336;2022-07-22T14:04:50;30.70;86.30
28654;DHT22;24320;56.980;24.336;2022-07-22T14:07:17;30.70;85.60
28654;DHT22;24320;56.980;24.336;2022-07-22T14:09:44;30.80;87.30
28654;DHT22;24320;56.980;24.336;2022-07-22T14:12:11;30.80;84.60
28654;DHT22;24320;56.980;24.336;2022-07-22T14:14:38;30.80;84.90
28654;DHT22;24320;56.980;24.336;2022-07-22T14:17:05;30.80;85.30
28654;DHT22;24320;56.980;24.336;2022-07-22T14:19:33;30.80;82.90
28654;DHT22;24320;56.980;24.336;2022-07-22T14:22:00;30.80;82.00
28654;DHT22;24320;56.980;24.336;2022-07-22T14:24:27;30.70;84.50
28654;DHT22;24320;56.980;24.336;2022-07-22T14:26:54;30.70;84.90
28654;DHT22;24320;56.980;24.336;2022-07-22T14:29:21;30.70;86.30
28654;DHT22;24320;56.980;24.336;2022-07-22T14:31:49;30.70;86.50
28654;DHT22;24320;56.980;24.336;2022-07-22T14:34:16;30.60;88.30
28654;DHT22;24320;56.980;24.336;2022-07-22T14:36:46;30.60;89.00
28654;DHT22;24320;56.980;24.336;2022-07-22T14:39:13;30.60;86.20
28654;DHT22;24320;56.980;24.336;2022-07-22T14:41:40;30.60;88.10
28654;DHT22;24320;56.980;24.336;2022-07-22T14:44:07;30.60;85.70
28654;DHT22;24320;56.980;24.336;2022-07-22T14:46:33;30.60;86.40
28654;DHT22;24320;56.980;24.336;2022-07-22T14:49:01;30.60;84.20
28654;DHT22;24320;56.980;24.336;2022-07-22T14:51:28;30.60;84.10
28654;DHT22;24320;56.980;24.336;2022-07-22T14:53:55;30.60;82.70
28654;DHT22;24320;56.980;24.336;2022-07-22T14:56:23;30.60;82.70
28654;DHT22;24320;56.980;24.336;2022-07-22T14:58:50;30.50;84.80
28654;DHT22;24320;56.980;24.336;2022-07-22T15:01:17;30.50;84.20
28654;DHT22;24320;56.980;24.336;2022-07-22T15:03:52;30.50;86.80
28654;DHT22;24320;56.980;24.336;2022-07-22T15:06:19;30.50;87.20
28654;DHT22;24320;56.980;24.336;2022-07-22T15:08:48;30.50;84.00
28654;DHT22;24320;56.980;24.336;2022-07-22T15:11:15;30.50;86.30
28654;DHT22;24320;56.980;24.336;2022-07-22T15:13:42;30.40;87.50
28654;DHT22;24320;56.980;24.336;2022-07-22T15:16:09;30.40;88.40
28654;DHT22;24320;56.980;24.336;2022-07-22T15:18:38;30.30;87.70
28654;DHT22;24320;56.980;24.336;2022-07-22T15:21:05;30.30;88.00
28654;DHT22;24320;56.980;24.336;2022-07-22T15:23:32;30.20;86.50
28654;DHT22;24320;56.980;24.336;2022-07-22T15:26:00;30.20;85.20
28654;DHT22;24320;56.980;24.336;2022-07-22T15:28:28;30.10;82.00
28654;DHT22;24320;56.980;24.336;2022-07-22T15:31:00;30.10;82.40
28654;DHT22;24320;56.980;24.336;2022-07-22T15:33:27;30.20;83.60
28654;DHT22;24320;56.980;24.336;2022-07-22T15:36:07;30.20;82.10
28654;DHT22;24320;56.980;24.336;2022-07-22T15:38:37;30.30;81.80
28654;DHT22;24320;56.980;24.336;2022-07-22T15:41:05;30.30;82.50
28654;DHT22;24320;56.980;24.336;2022-07-22T15:43:33;30.30;82.90
28654;DHT22;24320;56.980;24.336;2022-07-22T15:46:00;30.20;85.10
28654;DHT22;24320;56.980;24.336;2022-07-22T15:48:28;30.20;85.90